sensor_id;sensor_type;location;lat;lon;timestamp;P1;durP1;ratioP1;P2;durP2;ratioP2
4391;SDS011;2210;51.938;8.488;2023-03-15T00:01:02;3.43;;;1.20;;
4391;SDS011;2210;51.938;8.488;2023-03-15T00:05:18;6.30;;;1.70;;
4391;SDS011;2210;51.938;8.488;2023-03-15T00:09:18;1.87;;;1.40;;
4391;SDS011;2210;51.938;8.488;2023-03-15T00:13:21;12.37;;;2.20;;
4391;SDS011;2210;51.938;8.488;2023-03-15T00:17:21;9.45;;;2.45;;
4391;SDS011;2210;51.938;8.488;2023-03-15T00:21:21;3.77;;;1.63;;
4391;SDS011;2210;51.938;8.488;2023-03-15T00:25:22;11.83;;;2.70;;
4391;SDS011;2210;51.938;8.488;2023-03-15T00:29:25;8.35;;;2.78;;
4391;SDS011;2210;51.938;8.488;2023-03-15T00:33:32;6.97;;;1.43;;
4391;SDS011;2210;51.938;8.488;2023-03-15T00:37:38;2.30;;;1.57;;
4391;SDS011;2210;51.938;8.488;2023-03-15T00:41:41;5.53;;;1.80;;
4391;SDS011;2210;51.938;8.488;2023-03-15T00:45:44;3.03;;;1.43;;
4391;SDS011;2210;51.938;8.488;2023-03-15T00:49:44;3.88;;;1.38;;
4391;SDS011;2210;51.938;8.488;2023-03-15T00:53:45;3.10;;;1.70;;
4391;SDS011;2210;51.938;8.488;2023-03-15T00:57:49;5.60;;;1.50;;
4391;SDS011;2210;51.938;8.488;2023-03-15T01:01:49;4.00;;;1.43;;
4391;SDS011;2210;51.938;8.488;2023-03-15T01:05:50;6.00;;;1.40;;
4391;SDS011;2210;51.938;8.488;2023-03-15T01:09:53;9.82;;;1.80;;
4391;SDS011;2210;51.938;8.488;2023-03-15T01:13:54;2.57;;;1.70;;
4391;SDS011;2210;51.938;8.488;2023-03-15T01:17:56;4.50;;;1.40;;
4391;SDS011;2210;51.938;8.488;2023-03-15T01:21:57;5.80;;;1.53;;
4391;SDS011;2210;51.938;8.488;2023-03-15T01:26:04;4.13;;;1.80;;
4391;SDS011;2210;51.938;8.488;2023-03-15T01:30:08;7.33;;;2.57;;
4391;SDS011;2210;51.938;8.488;2023-03-15T01:34:15;8.97;;;3.43;;
4391;SDS011;2210;51.938;8.488;2023-03-15T01:38:16;7.27;;;3.70;;
4391;SDS011;2210;51.938;8.488;2023-03-15T01:42:22;10.00;;;3.53;;
4391;SDS011;2210;51.938;8.488;2023-03-15T01:46:25;5.00;;;2.70;;
4391;SDS011;2210;51.938;8.488;2023-03-15T01:50:31;6.43;;;1.90;;
4391;SDS011;2210;51.938;8.488;2023-03-15T01:54:33;5.50;;;2.23;;
4391;SDS011;2210;51.938;8.488;2023-03-15T01:58:39;3.47;;;1.50;;
4391;SDS011;2210;51.938;8.488;2023-03-15T02:02:45;4.40;;;1.60;;
4391;SDS011;2210;51.938;8.488;2023-03-15T02:06:51;2.47;;;1.37;;
4391;SDS011;2210;51.938;8.488;2023-03-15T02:10:59;4.47;;;2.43;;
4391;SDS011;2210;51.938;8.488;2023-03-15T02:15:02;10.30;;;4.40;;
4391;SDS011;2210;51.938;8.488;2023-03-15T02:19:11;6.23;;;2.73;;
4391;SDS011;2210;51.938;8.488;2023-03-15T02:23:35;6.73;;;3.10;;
4391;SDS011;2210;51.938;8.488;2023-03-15T02:27:36;2.40;;;2.20;;
4391;SDS011;2210;51.938;8.488;2023-03-15T02:31:36;2.30;;;1.83;;
4391;SDS011;2210;51.938;8.488;2023-03-15T02:35:37;1.97;;;1.77;;
4391;SDS011;2210;51.938;8.488;2023-03-15T02:39:37;2.00;;;1.90;;
4391;SDS011;2210;51.938;8.488;2023-03-15T02:43:37;2.40;;;2.20;;
4391;SDS011;2210;51.938;8.488;2023-03-15T02:47:39;2.70;;;2.50;;
4391;SDS011;2210;51.938;8.488;2023-03-15T02:51:39;5.50;;;3.10;;
4391;SDS011;2210;51.938;8.488;2023-03-15T02:55:40;4.78;;;4.20;;
4391;SDS011;2210;51.938;8.488;2023-03-15T02:59:40;5.43;;;3.73;;
4391;SDS011;2210;51.938;8.488;2023-03-15T03:03:44;4.60;;;4.20;;
4391;SDS011;2210;51.938;8.488;2023-03-15T03:07:45;6.63;;;5.90;;
4391;SDS011;2210;51.938;8.488;2023-03-15T03:11:45;9.10;;;6.87;;
4391;SDS011;2210;51.938;8.488;2023-03-15T03:15:48;8.50;;;6.63;;
4391;SDS011;2210;51.938;8.488;2023-03-15T03:19:48;8.10;;;7.03;;
4391;SDS011;2210;51.938;8.488;2023-03-15T03:23:50;8.30;;;7.20;;
4391;SDS011;2210;51.938;8.488;2023-03-15T03:27:50;6.07;;;5.57;;
4391;SDS011;2210;51.938;8.488;2023-03-15T03:31:51;6.00;;;5.40;;
4391;SDS011;2210;51.938;8.488;2023-03-15T03:35:51;5.03;;;4.63;;
4391;SDS011;2210;51.938;8.488;2023-03-15T03:39:53;5.27;;;4.77;;
4391;SDS011;2210;51.938;8.488;2023-03-15T03:43:53;5.00;;;4.50;;
4391;SDS011;2210;51.938;8.488;2023-03-15T03:47:53;5.43;;;4.07;;
4391;SDS011;2210;51.938;8.488;2023-03-15T03:51:53;6.60;;;4.77;;
4391;SDS011;2210;51.938;8.488;2023-03-15T03:55:54;5.57;;;4.47;;
4391;SDS011;2210;51.938;8.488;2023-03-15T04:00:00;6.10;;;4.87;;
4391;SDS011;2210;51.938;8.488;2023-03-15T04:04:01;5.93;;;4.30;;
4391;SDS011;2210;51.938;8.488;2023-03-15T04:08:01;5.88;;;4.50;;
4391;SDS011;2210;51.938;8.488;2023-03-15T04:12:01;4.90;;;4.40;;
4391;SDS011;2210;51.938;8.488;2023-03-15T04:16:04;5.97;;;3.80;;
4391;SDS011;2210;51.938;8.488;2023-03-15T04:20:06;5.60;;;5.10;;
4391;SDS011;2210;51.938;8.488;2023-03-15T04:24:15;4.80;;;4.40;;
4391;SDS011;2210;51.938;8.488;2023-03-15T04:28:16;4.47;;;4.07;;
4391;SDS011;2210;51.938;8.488;2023-03-15T04:32:18;4.80;;;4.40;;
4391;SDS011;2210;51.938;8.488;2023-03-15T04:36:18;4.03;;;3.73;;
4391;SDS011;2210;51.938;8.488;2023-03-15T04:40:19;5.83;;;4.30;;
4391;SDS011;2210;51.938;8.488;2023-03-15T04:44:22;4.43;;;4.03;;
4391;SDS011;2210;51.938;8.488;2023-03-15T04:48:25;4.40;;;3.77;;
4391;SDS011;2210;51.938;8.488;2023-03-15T04:52:28;4.10;;;3.78;;
4391;SDS011;2210;51.938;8.488;2023-03-15T04:56:30;5.10;;;4.00;;
4391;SDS011;2210;51.938;8.488;2023-03-15T05:00:30;3.67;;;3.37;;
4391;SDS011;2210;51.938;8.488;2023-03-15T05:04:30;4.65;;;4.20;;
4391;SDS011;2210;51.938;8.488;2023-03-15T05:08:31;3.80;;;3.38;;
4391;SDS011;2210;51.938;8.488;2023-03-15T05:12:31;4.25;;;3.85;;
4391;SDS011;2210;51.938;8.488;2023-03-15T05:16:32;3.60;;;3.30;;
4391;SDS011;2210;51.938;8.488;2023-03-15T05:20:32;3.35;;;3.03;;
4391;SDS011;2210;51.938;8.488;2023-03-15T05:24:33;4.15;;;3.53;;
4391;SDS011;2210;51.938;8.488;2023-03-15T05:28:36;3.90;;;3.30;;
4391;SDS011;2210;51.938;8.488;2023-03-15T05:32:36;5.27;;;3.70;;
4391;SDS011;2210;51.938;8.488;2023-03-15T05:36:38;7.77;;;3.83;;
4391;SDS011;2210;51.938;8.488;2023-03-15T05:40:39;6.20;;;3.90;;
4391;SDS011;2210;51.938;8.488;2023-03-15T05:44:41;4.80;;;3.70;;
4391;SDS011;2210;51.938;8.488;2023-03-15T05:48:41;4.05;;;3.72;;
4391;SDS011;2210;51.938;8.488;2023-03-15T05:52:42;10.50;;;4.40;;
4391;SDS011;2210;51.938;8.488;2023-03-15T05:56:42;4.53;;;4.10;;
4391;SDS011;2210;51.938;8.488;2023-03-15T06:00:42;5.75;;;4.43;;
4391;SDS011;2210;51.938;8.488;2023-03-15T06:04:42;7.78;;;4.70;;
4391;SDS011;2210;51.938;8.488;2023-03-15T06:08:45;3.70;;;3.40;;
4391;SDS011;2210;51.938;8.488;2023-03-15T06:12:46;4.30;;;3.40;;
4391;SDS011;2210;51.938;8.488;2023-03-15T06:16:46;4.13;;;3.70;;
4391;SDS011;2210;51.938;8.488;2023-03-15T06:20:46;3.97;;;3.57;;
4391;SDS011;2210;51.938;8.488;2023-03-15T06:24:46;7.90;;;3.70;;
4391;SDS011;2210;51.938;8.488;2023-03-15T06:28:47;4.93;;;4.13;;
4391;SDS011;2210;51.938;8.488;2023-03-15T06:32:47;5.80;;;4.20;;
4391;SDS011;2210;51.938;8.488;2023-03-15T06:36:47;4.03;;;3.63;;
4391;SDS011;2210;51.938;8.488;2023-03-15T06:40:51;3.77;;;3.47;;
4391;SDS011;2210;51.938;8.488;2023-03-15T06:44:51;7.53;;;4.00;;
4391;SDS011;2210;51.938;8.488;2023-03-15T06:48:51;6.22;;;4.57;;
4391;SDS011;2210;51.938;8.488;2023-03-15T06:52:52;5.38;;;3.92;;
4391;SDS011;2210;51.938;8.488;2023-03-15T06:57:01;4.30;;;3.80;;
4391;SDS011;2210;51.938;8.488;2023-03-15T07:01:02;8.20;;;4.80;;
4391;SDS011;2210;51.938;8.488;2023-03-15T07:05:03;3.00;;;2.80;;
4391;SDS011;2210;51.938;8.488;2023-03-15T07:09:04;4.00;;;3.40;;
4391;SDS011;2210;51.938;8.488;2023-03-15T07:13:10;4.27;;;3.70;;
4391;SDS011;2210;51.938;8.488;2023-03-15T07:17:11;4.60;;;3.47;;
4391;SDS011;2210;51.938;8.488;2023-03-15T07:21:23;4.40;;;3.60;;
4391;SDS011;2210;51.938;8.488;2023-03-15T07:25:23;5.17;;;3.53;;
4391;SDS011;2210;51.938;8.488;2023-03-15T07:29:24;5.37;;;3.27;;
4391;SDS011;2210;51.938;8.488;2023-03-15T07:33:28;5.40;;;3.63;;
4391;SDS011;2210;51.938;8.488;2023-03-15T07:37:30;5.47;;;4.47;;
4391;SDS011;2210;51.938;8.488;2023-03-15T07:41:36;7.57;;;3.67;;
4391;SDS011;2210;51.938;8.488;2023-03-15T07:45:36;5.40;;;3.53;;
4391;SDS011;2210;51.938;8.488;2023-03-15T07:49:37;5.27;;;3.37;;
4391;SDS011;2210;51.938;8.488;2023-03-15T07:53:37;5.32;;;3.58;;
4391;SDS011;2210;51.938;8.488;2023-03-15T07:57:43;9.80;;;4.40;;
4391;SDS011;2210;51.938;8.488;2023-03-15T08:01:43;3.97;;;3.57;;
4391;SDS011;2210;51.938;8.488;2023-03-15T08:05:43;6.78;;;4.15;;
4391;SDS011;2210;51.938;8.488;2023-03-15T08:09:44;4.77;;;3.60;;
4391;SDS011;2210;51.938;8.488;2023-03-15T08:13:45;11.00;;;4.50;;
4391;SDS011;2210;51.938;8.488;2023-03-15T08:17:46;4.68;;;2.78;;
4391;SDS011;2210;51.938;8.488;2023-03-15T08:21:47;6.53;;;3.17;;
4391;SDS011;2210;51.938;8.488;2023-03-15T08:25:48;5.07;;;3.70;;
4391;SDS011;2210;51.938;8.488;2023-03-15T08:29:49;3.83;;;3.13;;
4391;SDS011;2210;51.938;8.488;2023-03-15T08:33:50;3.03;;;2.67;;
4391;SDS011;2210;51.938;8.488;2023-03-15T08:37:53;10.10;;;3.60;;
4391;SDS011;2210;51.938;8.488;2023-03-15T08:41:56;4.67;;;3.30;;
4391;SDS011;2210;51.938;8.488;2023-03-15T08:45:59;6.63;;;2.80;;
4391;SDS011;2210;51.938;8.488;2023-03-15T08:50:00;6.20;;;2.77;;
4391;SDS011;2210;51.938;8.488;2023-03-15T08:54:04;7.00;;;3.03;;
4391;SDS011;2210;51.938;8.488;2023-03-15T08:58:07;3.47;;;3.00;;
4391;SDS011;2210;51.938;8.488;2023-03-15T09:02:09;3.70;;;3.40;;
4391;SDS011;2210;51.938;8.488;2023-03-15T09:06:10;7.70;;;3.33;;
4391;SDS011;2210;51.938;8.488;2023-03-15T09:10:23;4.10;;;2.50;;
4391;SDS011;2210;51.938;8.488;2023-03-15T09:14:24;3.43;;;3.10;;
4391;SDS011;2210;51.938;8.488;2023-03-15T09:18:24;4.43;;;2.83;;
4391;SDS011;2210;51.938;8.488;2023-03-15T09:22:24;4.23;;;3.10;;
4391;SDS011;2210;51.938;8.488;2023-03-15T09:26:24;5.83;;;3.43;;
4391;SDS011;2210;51.938;8.488;2023-03-15T09:30:25;5.33;;;2.80;;
4391;SDS011;2210;51.938;8.488;2023-03-15T09:34:25;5.03;;;2.70;;
4391;SDS011;2210;51.938;8.488;2023-03-15T09:38:26;6.23;;;2.80;;
4391;SDS011;2210;51.938;8.488;2023-03-15T09:42:29;4.23;;;2.77;;
4391;SDS011;2210;51.938;8.488;2023-03-15T09:47:06;4.60;;;3.27;;
4391;SDS011;2210;51.938;8.488;2023-03-15T09:51:18;5.27;;;2.70;;
4391;SDS011;2210;51.938;8.488;2023-03-15T09:55:38;2.53;;;2.17;;
4391;SDS011;2210;51.938;8.488;2023-03-15T09:59:41;4.20;;;2.77;;
4391;SDS011;2210;51.938;8.488;2023-03-15T10:03:50;5.60;;;2.63;;
4391;SDS011;2210;51.938;8.488;2023-03-15T10:07:52;7.30;;;2.83;;
4391;SDS011;2210;51.938;8.488;2023-03-15T10:20:28;2.73;;;2.53;;
4391;SDS011;2210;51.938;8.488;2023-03-15T10:24:36;8.60;;;2.87;;
4391;SDS011;2210;51.938;8.488;2023-03-15T10:28:45;7.53;;;2.30;;
4391;SDS011;2210;51.938;8.488;2023-03-15T10:32:49;5.33;;;2.00;;
4391;SDS011;2210;51.938;8.488;2023-03-15T10:36:58;6.03;;;4.10;;
4391;SDS011;2210;51.938;8.488;2023-03-15T10:40:59;5.57;;;2.63;;
4391;SDS011;2210;51.938;8.488;2023-03-15T10:45:10;4.80;;;2.00;;
4391;SDS011;2210;51.938;8.488;2023-03-15T10:49:15;3.63;;;1.90;;
4391;SDS011;2210;51.938;8.488;2023-03-15T10:53:16;4.00;;;1.80;;
4391;SDS011;2210;51.938;8.488;2023-03-15T10:57:20;7.97;;;2.03;;
4391;SDS011;2210;51.938;8.488;2023-03-15T11:01:28;5.43;;;1.50;;
4391;SDS011;2210;51.938;8.488;2023-03-15T11:05:46;2.63;;;1.43;;
4391;SDS011;2210;51.938;8.488;2023-03-15T11:09:52;3.07;;;1.83;;
4391;SDS011;2210;51.938;8.488;2023-03-15T11:13:57;2.23;;;1.77;;
4391;SDS011;2210;51.938;8.488;2023-03-15T11:17:59;3.07;;;1.80;;
4391;SDS011;2210;51.938;8.488;2023-03-15T11:22:00;3.07;;;1.33;;
4391;SDS011;2210;51.938;8.488;2023-03-15T11:26:01;4.30;;;1.50;;
4391;SDS011;2210;51.938;8.488;2023-03-15T11:30:03;4.80;;;2.00;;
4391;SDS011;2210;51.938;8.488;2023-03-15T11:38:40;2.00;;;1.40;;
4391;SDS011;2210;51.938;8.488;2023-03-15T11:51:34;1.67;;;1.30;;
4391;SDS011;2210;51.938;8.488;2023-03-15T11:55:38;3.50;;;1.40;;
4391;SDS011;2210;51.938;8.488;2023-03-15T11:59:42;2.53;;;1.00;;
4391;SDS011;2210;51.938;8.488;2023-03-15T12:03:47;1.87;;;0.97;;
4391;SDS011;2210;51.938;8.488;2023-03-15T12:07:58;6.10;;;1.30;;
4391;SDS011;2210;51.938;8.488;2023-03-15T12:16:27;1.17;;;0.80;;
4391;SDS011;2210;51.938;8.488;2023-03-15T12:20:48;1.70;;;1.00;;
4391;SDS011;2210;51.938;8.488;2023-03-15T12:25:07;2.03;;;1.10;;
4391;SDS011;2210;51.938;8.488;2023-03-15T12:29:17;3.17;;;1.40;;
4391;SDS011;2210;51.938;8.488;2023-03-15T12:33:20;1.20;;;1.10;;
4391;SDS011;2210;51.938;8.488;2023-03-15T12:37:26;1.10;;;1.00;;
4391;SDS011;2210;51.938;8.488;2023-03-15T12:41:45;2.60;;;1.20;;
4391;SDS011;2210;51.938;8.488;2023-03-15T12:45:47;1.67;;;1.00;;
4391;SDS011;2210;51.938;8.488;2023-03-15T12:49:48;1.50;;;1.10;;
4391;SDS011;2210;51.938;8.488;2023-03-15T12:53:51;1.30;;;1.00;;
4391;SDS011;2210;51.938;8.488;2023-03-15T12:57:52;2.00;;;1.17;;
4391;SDS011;2210;51.938;8.488;2023-03-15T13:01:57;2.00;;;0.80;;
4391;SDS011;2210;51.938;8.488;2023-03-15T13:19:26;2.47;;;1.50;;
4391;SDS011;2210;51.938;8.488;2023-03-15T13:23:32;2.40;;;1.43;;
4391;SDS011;2210;51.938;8.488;2023-03-15T13:27:47;1.47;;;0.87;;
4391;SDS011;2210;51.938;8.488;2023-03-15T13:32:07;2.37;;;1.20;;
4391;SDS011;2210;51.938;8.488;2023-03-15T13:36:14;1.30;;;1.20;;
4391;SDS011;2210;51.938;8.488;2023-03-15T13:40:16;1.47;;;0.93;;
4391;SDS011;2210;51.938;8.488;2023-03-15T13:44:19;2.88;;;1.35;;
4391;SDS011;2210;51.938;8.488;2023-03-15T13:48:22;1.83;;;1.13;;
4391;SDS011;2210;51.938;8.488;2023-03-15T13:52:25;1.07;;;0.70;;
4391;SDS011;2210;51.938;8.488;2023-03-15T13:56:26;1.87;;;1.10;;
4391;SDS011;2210;51.938;8.488;2023-03-15T14:00:48;1.50;;;0.90;;
4391;SDS011;2210;51.938;8.488;2023-03-15T14:04:58;3.63;;;0.90;;
4391;SDS011;2210;51.938;8.488;2023-03-15T14:09:16;3.27;;;0.87;;
4391;SDS011;2210;51.938;8.488;2023-03-15T14:13:23;2.80;;;0.90;;
4391;SDS011;2210;51.938;8.488;2023-03-15T14:17:26;3.07;;;1.40;;
4391;SDS011;2210;51.938;8.488;2023-03-15T14:21:34;1.70;;;1.00;;
4391;SDS011;2210;51.938;8.488;2023-03-15T14:25:42;2.60;;;1.17;;
4391;SDS011;2210;51.938;8.488;2023-03-15T14:29:50;1.23;;;0.80;;
4391;SDS011;2210;51.938;8.488;2023-03-15T14:34:24;1.50;;;0.93;;
4391;SDS011;2210;51.938;8.488;2023-03-15T14:38:39;1.67;;;0.93;;
4391;SDS011;2210;51.938;8.488;2023-03-15T14:42:39;2.53;;;1.03;;
4391;SDS011;2210;51.938;8.488;2023-03-15T14:46:40;1.20;;;1.10;;
4391;SDS011;2210;51.938;8.488;2023-03-15T14:50:41;1.23;;;0.70;;
4391;SDS011;2210;51.938;8.488;2023-03-15T14:54:45;0.93;;;0.80;;
4391;SDS011;2210;51.938;8.488;2023-03-15T14:58:47;2.10;;;1.00;;
4391;SDS011;2210;51.938;8.488;2023-03-15T15:02:49;1.60;;;0.70;;
4391;SDS011;2210;51.938;8.488;2023-03-15T15:06:53;1.03;;;0.80;;
4391;SDS011;2210;51.938;8.488;2023-03-15T15:10:54;1.13;;;0.87;;
4391;SDS011;2210;51.938;8.488;2023-03-15T15:14:55;2.20;;;1.00;;
4391;SDS011;2210;51.938;8.488;2023-03-15T15:19:04;3.50;;;0.98;;
4391;SDS011;2210;51.938;8.488;2023-03-15T15:23:07;1.73;;;1.10;;
4391;SDS011;2210;51.938;8.488;2023-03-15T15:27:09;2.93;;;1.60;;
4391;SDS011;2210;51.938;8.488;2023-03-15T15:31:20;3.53;;;1.30;;
4391;SDS011;2210;51.938;8.488;2023-03-15T15:35:31;3.53;;;2.50;;
4391;SDS011;2210;51.938;8.488;2023-03-15T15:39:31;2.67;;;1.03;;
4391;SDS011;2210;51.938;8.488;2023-03-15T15:43:32;0.90;;;0.90;;
4391;SDS011;2210;51.938;8.488;2023-03-15T15:47:32;2.13;;;1.10;;
4391;SDS011;2210;51.938;8.488;2023-03-15T15:51:36;6.00;;;0.98;;
4391;SDS011;2210;51.938;8.488;2023-03-15T15:55:43;2.43;;;0.73;;
4391;SDS011;2210;51.938;8.488;2023-03-15T15:59:44;3.17;;;1.33;;
4391;SDS011;2210;51.938;8.488;2023-03-15T16:03:44;1.23;;;0.80;;
4391;SDS011;2210;51.938;8.488;2023-03-15T16:07:45;1.67;;;0.97;;
4391;SDS011;2210;51.938;8.488;2023-03-15T16:11:45;1.27;;;0.90;;
4391;SDS011;2210;51.938;8.488;2023-03-15T16:15:46;1.00;;;0.83;;
4391;SDS011;2210;51.938;8.488;2023-03-15T16:19:47;2.03;;;0.70;;
4391;SDS011;2210;51.938;8.488;2023-03-15T16:23:49;0.60;;;0.60;;
4391;SDS011;2210;51.938;8.488;2023-03-15T16:27:56;1.37;;;0.70;;
4391;SDS011;2210;51.938;8.488;2023-03-15T16:31:56;2.47;;;0.83;;
4391;SDS011;2210;51.938;8.488;2023-03-15T16:35:57;0.83;;;0.70;;
4391;SDS011;2210;51.938;8.488;2023-03-15T16:40:00;2.87;;;1.13;;
4391;SDS011;2210;51.938;8.488;2023-03-15T16:44:08;1.67;;;0.90;;
4391;SDS011;2210;51.938;8.488;2023-03-15T16:48:13;1.20;;;1.10;;
4391;SDS011;2210;51.938;8.488;2023-03-15T16:52:14;1.67;;;1.13;;
4391;SDS011;2210;51.938;8.488;2023-03-15T16:56:15;1.73;;;0.90;;
4391;SDS011;2210;51.938;8.488;2023-03-15T17:00:15;3.10;;;1.10;;
4391;SDS011;2210;51.938;8.488;2023-03-15T17:04:16;1.20;;;0.83;;
4391;SDS011;2210;51.938;8.488;2023-03-15T17:08:19;2.63;;;1.85;;
4391;SDS011;2210;51.938;8.488;2023-03-15T17:12:29;1.23;;;0.90;;
4391;SDS011;2210;51.938;8.488;2023-03-15T17:16:29;3.60;;;1.10;;
4391;SDS011;2210;51.938;8.488;2023-03-15T17:20:30;3.23;;;1.23;;
4391;SDS011;2210;51.938;8.488;2023-03-15T17:24:34;3.27;;;1.53;;
4391;SDS011;2210;51.938;8.488;2023-03-15T17:28:38;3.23;;;1.70;;
4391;SDS011;2210;51.938;8.488;2023-03-15T17:32:38;2.33;;;1.80;;
4391;SDS011;2210;51.938;8.488;2023-03-15T17:36:39;4.33;;;2.60;;
4391;SDS011;2210;51.938;8.488;2023-03-15T17:40:40;6.63;;;2.53;;
4391;SDS011;2210;51.938;8.488;2023-03-15T17:44:41;3.90;;;2.80;;
4391;SDS011;2210;51.938;8.488;2023-03-15T17:48:44;3.53;;;3.03;;
4391;SDS011;2210;51.938;8.488;2023-03-15T17:52:45;7.97;;;4.40;;
4391;SDS011;2210;51.938;8.488;2023-03-15T17:56:48;5.70;;;3.33;;
4391;SDS011;2210;51.938;8.488;2023-03-15T18:00:50;4.03;;;3.50;;
4391;SDS011;2210;51.938;8.488;2023-03-15T18:04:52;6.93;;;4.33;;
4391;SDS011;2210;51.938;8.488;2023-03-15T18:08:52;7.00;;;5.47;;
4391;SDS011;2210;51.938;8.488;2023-03-15T18:12:55;10.00;;;5.10;;
4391;SDS011;2210;51.938;8.488;2023-03-15T18:16:59;4.43;;;3.63;;
4391;SDS011;2210;51.938;8.488;2023-03-15T18:20:59;7.20;;;3.23;;
4391;SDS011;2210;51.938;8.488;2023-03-15T18:24:59;7.13;;;2.87;;
4391;SDS011;2210;51.938;8.488;2023-03-15T18:29:00;2.83;;;2.40;;
4391;SDS011;2210;51.938;8.488;2023-03-15T18:33:00;6.60;;;3.27;;
4391;SDS011;2210;51.938;8.488;2023-03-15T18:37:04;3.13;;;2.13;;
4391;SDS011;2210;51.938;8.488;2023-03-15T18:41:11;5.13;;;2.33;;
4391;SDS011;2210;51.938;8.488;2023-03-15T18:49:23;3.53;;;1.80;;
4391;SDS011;2210;51.938;8.488;2023-03-15T18:53:23;2.40;;;1.80;;
4391;SDS011;2210;51.938;8.488;2023-03-15T18:57:23;2.05;;;1.67;;
4391;SDS011;2210;51.938;8.488;2023-03-15T19:01:30;5.60;;;1.50;;
4391;SDS011;2210;51.938;8.488;2023-03-15T19:05:34;3.30;;;2.00;;
4391;SDS011;2210;51.938;8.488;2023-03-15T19:09:36;2.67;;;1.33;;
4391;SDS011;2210;51.938;8.488;2023-03-15T19:13:36;2.05;;;1.58;;
4391;SDS011;2210;51.938;8.488;2023-03-15T19:17:41;2.13;;;1.37;;
4391;SDS011;2210;51.938;8.488;2023-03-15T19:21:41;1.20;;;1.10;;
4391;SDS011;2210;51.938;8.488;2023-03-15T19:25:42;1.53;;;1.37;;
4391;SDS011;2210;51.938;8.488;2023-03-15T19:29:42;2.10;;;1.83;;
4391;SDS011;2210;51.938;8.488;2023-03-15T19:33:43;6.50;;;2.37;;
4391;SDS011;2210;51.938;8.488;2023-03-15T19:37:43;17.08;;;11.32;;
4391;SDS011;2210;51.938;8.488;2023-03-15T19:41:44;16.63;;;9.63;;
4391;SDS011;2210;51.938;8.488;2023-03-15T19:45:49;8.83;;;5.60;;
4391;SDS011;2210;51.938;8.488;2023-03-15T19:49:49;6.53;;;4.60;;
4391;SDS011;2210;51.938;8.488;2023-03-15T19:53:53;8.93;;;4.55;;
4391;SDS011;2210;51.938;8.488;2023-03-15T20:11:15;2.97;;;2.60;;
4391;SDS011;2210;51.938;8.488;2023-03-15T20:15:24;4.30;;;3.00;;
4391;SDS011;2210;51.938;8.488;2023-03-15T20:19:28;3.97;;;2.60;;
4391;SDS011;2210;51.938;8.488;2023-03-15T20:23:28;3.50;;;3.20;;
4391;SDS011;2210;51.938;8.488;2023-03-15T20:27:32;3.70;;;3.13;;
4391;SDS011;2210;51.938;8.488;2023-03-15T20:31:36;6.13;;;4.20;;
4391;SDS011;2210;51.938;8.488;2023-03-15T20:35:36;4.40;;;3.67;;
4391;SDS011;2210;51.938;8.488;2023-03-15T20:39:40;5.40;;;3.50;;
4391;SDS011;2210;51.938;8.488;2023-03-15T20:43:40;7.30;;;5.10;;
4391;SDS011;2210;51.938;8.488;2023-03-15T20:47:41;9.00;;;4.50;;
4391;SDS011;2210;51.938;8.488;2023-03-15T20:51:44;4.73;;;4.10;;
4391;SDS011;2210;51.938;8.488;2023-03-15T20:55:48;3.87;;;3.47;;
4391;SDS011;2210;51.938;8.488;2023-03-15T20:59:48;6.53;;;3.07;;
4391;SDS011;2210;51.938;8.488;2023-03-15T21:03:49;4.73;;;3.03;;
4391;SDS011;2210;51.938;8.488;2023-03-15T21:07:59;4.70;;;4.13;;
4391;SDS011;2210;51.938;8.488;2023-03-15T21:12:02;4.40;;;3.07;;
4391;SDS011;2210;51.938;8.488;2023-03-15T21:16:02;3.37;;;2.70;;
4391;SDS011;2210;51.938;8.488;2023-03-15T21:20:03;8.70;;;3.03;;
4391;SDS011;2210;51.938;8.488;2023-03-15T21:24:06;3.23;;;2.93;;
4391;SDS011;2210;51.938;8.488;2023-03-15T21:28:06;4.47;;;2.83;;
4391;SDS011;2210;51.938;8.488;2023-03-15T21:32:06;4.07;;;3.33;;
4391;SDS011;2210;51.938;8.488;2023-03-15T21:36:07;5.67;;;3.60;;
4391;SDS011;2210;51.938;8.488;2023-03-15T21:40:14;6.10;;;3.83;;
4391;SDS011;2210;51.938;8.488;2023-03-15T21:44:14;3.57;;;3.27;;
4391;SDS011;2210;51.938;8.488;2023-03-15T21:48:15;9.13;;;3.60;;
4391;SDS011;2210;51.938;8.488;2023-03-15T21:57:13;6.43;;;3.77;;
4391;SDS011;2210;51.938;8.488;2023-03-15T22:01:13;5.05;;;3.40;;
4391;SDS011;2210;51.938;8.488;2023-03-15T22:05:14;4.73;;;3.90;;
4391;SDS011;2210;51.938;8.488;2023-03-15T22:09:14;4.17;;;3.60;;
4391;SDS011;2210;51.938;8.488;2023-03-15T22:13:15;9.07;;;3.50;;
4391;SDS011;2210;51.938;8.488;2023-03-15T22:17:15;5.43;;;3.03;;
4391;SDS011;2210;51.938;8.488;2023-03-15T22:21:15;4.10;;;2.70;;
4391;SDS011;2210;51.938;8.488;2023-03-15T22:25:16;3.70;;;2.63;;
4391;SDS011;2210;51.938;8.488;2023-03-15T22:29:16;5.77;;;3.20;;
4391;SDS011;2210;51.938;8.488;2023-03-15T22:33:16;3.10;;;2.70;;
4391;SDS011;2210;51.938;8.488;2023-03-15T22:37:18;3.23;;;2.90;;
4391;SDS011;2210;51.938;8.488;2023-03-15T22:41:18;9.15;;;2.85;;
4391;SDS011;2210;51.938;8.488;2023-03-15T22:45:19;3.77;;;2.80;;
4391;SDS011;2210;51.938;8.488;2023-03-15T22:49:23;3.30;;;2.73;;
4391;SDS011;2210;51.938;8.488;2023-03-15T22:53:23;3.87;;;2.63;;
4391;SDS011;2210;51.938;8.488;2023-03-15T22:57:26;4.70;;;2.60;;
4391;SDS011;2210;51.938;8.488;2023-03-15T23:01:30;4.17;;;2.40;;
4391;SDS011;2210;51.938;8.488;2023-03-15T23:05:33;3.80;;;3.43;;
4391;SDS011;2210;51.938;8.488;2023-03-15T23:09:33;4.40;;;2.90;;
4391;SDS011;2210;51.938;8.488;2023-03-15T23:13:40;3.83;;;2.85;;
4391;SDS011;2210;51.938;8.488;2023-03-15T23:17:43;4.30;;;2.33;;
4391;SDS011;2210;51.938;8.488;2023-03-15T23:21:44;6.13;;;2.87;;
4391;SDS011;2210;51.938;8.488;2023-03-15T23:25:45;4.03;;;2.80;;
4391;SDS011;2210;51.938;8.488;2023-03-15T23:29:45;2.77;;;2.53;;
4391;SDS011;2210;51.938;8.488;2023-03-15T23:33:46;2.95;;;2.50;;
4391;SDS011;2210;51.938;8.488;2023-03-15T23:37:46;3.93;;;2.63;;
4391;SDS011;2210;51.938;8.488;2023-03-15T23:41:47;4.40;;;2.55;;
4391;SDS011;2210;51.938;8.488;2023-03-15T23:45:47;2.93;;;2.40;;
4391;SDS011;2210;51.938;8.488;2023-03-15T23:49:51;6.80;;;2.70;;
4391;SDS011;2210;51.938;8.488;2023-03-15T23:53:51;6.17;;;2.80;;
4391;SDS011;2210;51.938;8.488;2023-03-15T23:57:51;5.40;;;2.25;;
